Lawn, Pennsylvania
Current Conditions -  °F | °C
As of 1:56 PM on Thursday 18 Dec 2014 (Local Time) from KMDT Reporting Station
Overcast Overcast  
Wind Chill: 25°   Ceiling: 3500
Heat Index: 35°   Visibility: 10mi
Dew Point: 23°   Wind: 17mph
Humidity: 61%   Direction: 300°WNW
Pressure: 30.08"   Gusts: 24mph
Location:  40.22°N, 76.54°W
Report Text: KMDT 181856Z 30015G21KT 10SM OVC035 02/M05 A3008 RMK AO2 SLP190 T00171050
Loading
Personal Weather Stations






























Interactive Weather Map New forecast layout! Learn more

10-Day Weather Forecast

Advertisements
Track Severe Weather on mobile